Avondale, Maryland
Current Conditions -  °F | °C
As of 9:10 AM on Thursday 30 Oct 2014 (Local Time) from KCGS Reporting Station
Scattered Clouds Scattered Clouds  
Wind Chill: 44°   Ceiling: Unl
Heat Index: 46°   Visibility: 10mi
Dew Point: 41°   Wind: 5mph
Humidity: 81%   Direction: 330°NNW
Pressure: 30.07"   Gusts: NA
Location:  38.9677°N, 76.9584°W
Report Text: KCGS 301310Z AUTO 33004KT 10SM SCT075 08/05 A3007 RMK AO1
Loading
Personal Weather Stations






























Interactive Weather Map New forecast layout! Learn more

10-Day Weather Forecast

Advertisements
Track Severe Weather on mobile